createdAt,value
2023-03-13T00:01:21.891Z,5.63
2023-03-13T00:03:50.212Z,4.40
2023-03-13T00:06:20.434Z,4.78
2023-03-13T00:08:48.723Z,4.88
2023-03-13T00:11:17.416Z,5.18
2023-03-13T00:13:45.935Z,5.22
2023-03-13T00:16:15.749Z,5.75
2023-03-13T00:18:47.840Z,5.72
2023-03-13T00:21:16.369Z,5.88
2023-03-13T00:23:46.577Z,6.68
2023-03-13T00:26:16.477Z,6.93
2023-03-13T00:28:46.024Z,5.78
2023-03-13T00:31:16.432Z,6.32
2023-03-13T00:33:47.067Z,6.82
2023-03-13T00:36:17.559Z,6.90
2023-03-13T00:38:47.831Z,7.75
2023-03-13T00:41:17.240Z,6.57
2023-03-13T00:43:46.509Z,7.30
2023-03-13T00:46:16.355Z,6.40
2023-03-13T00:48:44.565Z,7.35
2023-03-13T00:51:14.594Z,7.20
2023-03-13T00:53:43.000Z,5.93
2023-03-13T00:56:15.290Z,6.07
2023-03-13T00:58:44.992Z,6.55
2023-03-13T01:01:16.273Z,6.68
2023-03-13T01:03:46.672Z,5.60
2023-03-13T01:06:17.416Z,6.18
2023-03-13T01:08:45.497Z,5.85
2023-03-13T01:11:17.249Z,6.15
2023-03-13T01:13:46.924Z,6.50
2023-03-13T01:16:16.902Z,5.40
2023-03-13T01:18:46.737Z,6.35
2023-03-13T01:21:16.160Z,5.43
2023-03-13T01:23:44.366Z,5.95
2023-03-13T01:26:13.921Z,5.55
2023-03-13T01:28:42.164Z,5.65
2023-03-13T01:31:14.714Z,5.55
2023-03-13T01:33:43.127Z,6.13
2023-03-13T01:36:11.244Z,6.10
2023-03-13T01:38:40.358Z,6.47
2023-03-13T01:41:09.928Z,5.90
2023-03-13T01:43:39.566Z,5.32
2023-03-13T01:46:14.721Z,5.57
2023-03-13T01:48:54.663Z,5.15
2023-03-13T01:51:27.071Z,5.32
2023-03-13T01:54:01.326Z,5.47
2023-03-13T01:56:35.326Z,6.15
2023-03-13T01:59:07.239Z,6.05
2023-03-13T02:01:35.986Z,4.88
2023-03-13T02:04:06.968Z,5.43
2023-03-13T02:06:37.816Z,5.57
2023-03-13T02:09:10.484Z,5.68
2023-03-13T02:11:48.450Z,5.90
2023-03-13T02:14:22.001Z,5.85
2023-03-13T02:16:52.080Z,5.30
2023-03-13T02:19:28.803Z,5.72
2023-03-13T02:22:03.612Z,5.60
2023-03-13T02:24:39.026Z,5.53
2023-03-13T02:27:09.238Z,5.07
2023-03-13T02:29:40.937Z,6.18
2023-03-13T02:32:09.629Z,5.43
2023-03-13T02:34:41.343Z,5.68
2023-03-13T02:37:12.998Z,5.68
2023-03-13T02:39:45.845Z,5.35
2023-03-13T02:42:16.950Z,5.43
2023-03-13T02:44:48.208Z,5.20
2023-03-13T02:47:19.808Z,6.38
2023-03-13T02:49:48.092Z,5.65
2023-03-13T02:52:20.271Z,6.05
2023-03-13T02:54:52.560Z,6.55
2023-03-13T02:57:23.818Z,5.55
2023-03-13T02:59:51.967Z,5.65
2023-03-13T03:02:20.384Z,5.63
2023-03-13T03:04:48.415Z,5.85
2023-03-13T03:07:16.434Z,6.00
2023-03-13T03:09:44.673Z,5.70
2023-03-13T03:12:18.716Z,4.95
2023-03-13T03:14:48.469Z,5.22
2023-03-13T03:17:17.251Z,6.03
2023-03-13T03:19:45.375Z,5.45
2023-03-13T03:22:13.472Z,4.78
2023-03-13T03:24:41.541Z,5.03
2023-03-13T03:27:09.605Z,4.90
2023-03-13T03:29:43.752Z,4.65
2023-03-13T03:32:13.612Z,4.35
2023-03-13T03:34:41.811Z,4.15
2023-03-13T03:37:10.394Z,4.05
2023-03-13T03:39:40.501Z,4.28
2023-03-13T03:42:09.671Z,4.28
2023-03-13T03:44:38.663Z,3.80
2023-03-13T03:47:07.414Z,4.30
2023-03-13T03:49:41.610Z,4.00
2023-03-13T03:52:12.250Z,3.20
2023-03-13T03:54:42.873Z,3.38
2023-03-13T03:57:10.981Z,3.65
2023-03-13T03:59:40.584Z,3.90
2023-03-13T04:02:10.435Z,3.40
2023-03-13T04:04:38.720Z,2.53
2023-03-13T04:07:12.526Z,2.75
2023-03-13T04:09:41.616Z,2.30
2023-03-13T04:12:12.816Z,0.00
2023-03-13T04:14:44.423Z,0.45
2023-03-13T04:17:15.882Z,0.00
2023-03-13T04:19:45.359Z,0.30
2023-03-13T04:22:15.074Z,0.43
2023-03-13T04:24:48.860Z,0.10
2023-03-13T04:27:16.994Z,0.28
2023-03-13T04:29:46.656Z,0.25
2023-03-13T04:32:32.932Z,0.30
2023-03-13T04:35:26.106Z,0.20
2023-03-13T04:38:15.888Z,0.25
2023-03-13T04:41:05.860Z,0.10
2023-03-13T04:43:53.755Z,0.20
2023-03-13T04:46:44.856Z,0.55
2023-03-13T04:49:13.655Z,0.00
2023-03-13T04:51:53.442Z,0.10
2023-03-13T04:54:41.152Z,0.22
2023-03-13T04:57:18.820Z,0.10
2023-03-13T04:59:57.219Z,0.13
2023-03-13T05:03:00.377Z,0.10
2023-03-13T05:05:37.738Z,0.00
2023-03-13T05:08:22.719Z,0.22
2023-03-13T05:11:12.641Z,0.00
2023-03-13T05:13:58.461Z,0.00
2023-03-13T05:16:37.740Z,0.10
2023-03-13T05:19:31.596Z,0.32
2023-03-13T05:22:28.833Z,0.10
2023-03-13T05:25:19.725Z,0.25
2023-03-13T05:28:00.290Z,0.15
2023-03-13T05:30:44.403Z,1.08
2023-03-13T05:33:27.322Z,0.35
2023-03-13T05:36:15.072Z,0.40
2023-03-13T05:38:58.098Z,0.20
2023-03-13T05:42:04.572Z,0.47
2023-03-13T05:44:51.133Z,0.00
2023-03-13T05:47:38.644Z,0.28
2023-03-13T05:50:27.019Z,0.52
2023-03-13T05:52:55.033Z,0.15
2023-03-13T05:55:48.966Z,0.13
2023-03-13T05:58:37.409Z,0.32
2023-03-13T06:01:29.761Z,0.08
2023-03-13T06:04:09.123Z,0.10
2023-03-13T06:06:38.752Z,0.25
2023-03-13T06:09:07.081Z,0.13
2023-03-13T06:11:36.052Z,0.15
2023-03-13T06:14:06.153Z,0.32
2023-03-13T06:16:43.517Z,0.00
2023-03-13T06:19:20.558Z,0.43
2023-03-13T06:21:48.607Z,0.10
2023-03-13T06:24:16.615Z,0.00
2023-03-13T06:26:44.789Z,0.30
2023-03-13T06:29:13.034Z,0.20
2023-03-13T06:31:41.170Z,0.00
2023-03-13T06:34:12.268Z,0.10
2023-03-13T06:36:40.889Z,0.05
2023-03-13T06:39:09.291Z,0.00
2023-03-13T06:41:37.880Z,0.30
2023-03-13T06:44:06.391Z,0.40
2023-03-13T06:46:34.659Z,0.10
2023-03-13T06:49:04.723Z,0.00
2023-03-13T06:51:34.518Z,0.95
2023-03-13T06:54:03.118Z,0.05
2023-03-13T06:56:31.146Z,0.13
2023-03-13T06:59:00.130Z,0.00
2023-03-13T07:01:28.509Z,0.30
2023-03-13T07:03:56.653Z,0.20
2023-03-13T07:06:24.799Z,0.38
2023-03-13T07:08:54.243Z,0.00
2023-03-13T07:11:22.379Z,0.13
2023-03-13T07:13:50.420Z,0.57
2023-03-13T07:16:18.577Z,0.82
2023-03-13T07:18:46.783Z,0.85
2023-03-13T07:21:15.674Z,0.47
2023-03-13T07:23:43.790Z,0.68
2023-03-13T07:26:15.414Z,0.20
2023-03-13T07:28:43.987Z,0.20
2023-03-13T07:31:13.848Z,0.40
2023-03-13T07:33:42.450Z,0.30
2023-03-13T07:36:11.406Z,0.20
2023-03-13T07:38:39.483Z,0.40
2023-03-13T07:41:07.520Z,0.47
2023-03-13T07:43:37.065Z,0.50
2023-03-13T07:46:06.753Z,0.50
2023-03-13T07:48:36.705Z,1.38
2023-03-13T07:51:06.275Z,1.55
2023-03-13T07:53:35.153Z,0.43
2023-03-13T07:56:05.615Z,0.60
2023-03-13T07:58:37.102Z,0.65
2023-03-13T08:01:10.258Z,0.40
2023-03-13T08:03:38.720Z,0.20
2023-03-13T08:06:09.400Z,0.30
2023-03-13T08:08:38.483Z,0.10
2023-03-13T08:11:09.066Z,0.32
2023-03-13T08:13:39.171Z,0.22
2023-03-13T08:16:09.049Z,0.05
2023-03-13T08:18:38.701Z,0.70
2023-03-13T08:21:08.504Z,0.52
2023-03-13T08:23:37.123Z,0.63
2023-03-13T08:26:07.277Z,0.35
2023-03-13T08:28:36.021Z,0.40
2023-03-13T08:31:13.625Z,2.15
2023-03-13T08:33:43.271Z,0.80
2023-03-13T08:36:17.314Z,0.30
2023-03-13T08:38:46.442Z,0.10
2023-03-13T08:41:15.960Z,0.05
2023-03-13T08:43:44.191Z,0.30
2023-03-13T08:46:13.930Z,0.20
2023-03-13T08:48:42.083Z,0.20
2023-03-13T08:51:12.350Z,0.30
2023-03-13T08:53:41.741Z,0.00
2023-03-13T08:56:10.699Z,0.00
2023-03-13T08:58:39.072Z,0.30
2023-03-13T09:01:08.543Z,0.13
2023-03-13T09:03:38.242Z,0.10
2023-03-13T09:06:06.833Z,0.13
2023-03-13T09:08:35.768Z,0.30
2023-03-13T09:11:05.957Z,0.38
2023-03-13T09:13:36.369Z,0.20
2023-03-13T09:16:06.591Z,0.22
2023-03-13T09:18:37.407Z,2.00
2023-03-13T09:21:10.108Z,2.25
2023-03-13T09:23:38.282Z,1.42
2023-03-13T09:26:06.712Z,2.20
2023-03-13T09:28:35.685Z,1.83
2023-03-13T09:31:11.302Z,1.80
2023-03-13T09:33:40.012Z,2.17
2023-03-13T09:36:11.581Z,2.13
2023-03-13T09:38:40.133Z,2.00
2023-03-13T09:41:27.318Z,2.08
2023-03-13T09:44:03.124Z,1.70
2023-03-13T09:46:38.261Z,2.05
2023-03-13T09:49:13.472Z,2.05
2023-03-13T09:51:50.060Z,2.40
2023-03-13T09:54:25.995Z,2.10
2023-03-13T09:56:58.395Z,2.33
2023-03-13T09:59:36.980Z,2.20
2023-03-13T10:02:17.269Z,1.90
2023-03-13T10:04:50.300Z,2.17
2023-03-13T10:07:20.930Z,2.25
2023-03-13T10:09:49.125Z,2.50
2023-03-13T10:12:21.393Z,1.77
2023-03-13T10:14:58.165Z,2.30
2023-03-13T10:17:33.401Z,2.20
2023-03-13T10:20:09.168Z,1.83
2023-03-13T10:22:45.628Z,2.30
2023-03-13T10:25:29.734Z,2.33
2023-03-13T10:27:58.886Z,2.30
2023-03-13T10:30:28.856Z,1.92
2023-03-13T10:33:16.577Z,2.22
2023-03-13T10:35:45.691Z,2.45
2023-03-13T10:38:19.075Z,2.25
2023-03-13T10:40:59.044Z,2.00
2023-03-13T10:43:28.235Z,2.83
2023-03-13T10:45:56.696Z,2.13
2023-03-13T10:48:26.937Z,2.38
2023-03-13T10:50:57.674Z,2.40
2023-03-13T10:53:34.223Z,2.40
2023-03-13T10:56:10.506Z,2.40
2023-03-13T10:58:43.998Z,2.63
2023-03-13T11:01:24.330Z,2.33
2023-03-13T11:03:54.599Z,2.65
2023-03-13T11:06:30.273Z,1.83
2023-03-13T11:09:07.595Z,2.40
2023-03-13T11:11:52.188Z,2.75
2023-03-13T11:14:21.829Z,2.33
2023-03-13T11:16:51.660Z,2.45
2023-03-13T11:19:53.973Z,2.15
2023-03-13T11:22:30.429Z,2.72
2023-03-13T11:25:17.781Z,2.78
2023-03-13T11:27:50.842Z,2.55
2023-03-13T11:30:33.869Z,2.75
2023-03-13T11:33:05.499Z,2.28
2023-03-13T11:35:41.619Z,2.05
2023-03-13T11:38:19.192Z,2.38
2023-03-13T11:40:56.980Z,2.45
2023-03-13T11:43:42.218Z,2.72
2023-03-13T11:46:29.032Z,3.00
2023-03-13T11:49:17.254Z,3.03
2023-03-13T11:51:58.735Z,2.13
2023-03-13T11:54:59.111Z,2.38
2023-03-13T11:57:30.991Z,2.40
2023-03-13T12:00:19.480Z,2.20
2023-03-13T12:02:51.587Z,2.05
2023-03-13T12:05:21.918Z,2.20
2023-03-13T12:07:55.765Z,2.00
2023-03-13T12:10:28.875Z,2.25
2023-03-13T12:13:05.024Z,2.20
2023-03-13T12:15:37.922Z,2.30
2023-03-13T12:18:11.134Z,2.13
2023-03-13T12:20:45.624Z,2.03
2023-03-13T12:23:20.551Z,1.90
2023-03-13T12:25:54.164Z,1.88
2023-03-13T12:28:34.620Z,2.00
2023-03-13T12:31:13.081Z,1.80
2023-03-13T12:33:45.315Z,1.90
2023-03-13T12:36:18.741Z,1.98
2023-03-13T12:38:53.956Z,1.90
2023-03-13T12:41:26.641Z,1.85
2023-03-13T12:44:08.343Z,2.00
2023-03-13T12:46:42.695Z,2.10
2023-03-13T12:49:31.646Z,1.65
2023-03-13T12:52:30.948Z,1.55
2023-03-13T12:55:28.716Z,1.80
2023-03-13T12:58:19.308Z,2.17
2023-03-13T13:00:51.599Z,2.03
2023-03-13T13:03:30.903Z,2.00
2023-03-13T13:06:08.928Z,1.90
2023-03-13T13:08:40.490Z,1.90
2023-03-13T13:11:41.935Z,1.80
2023-03-13T13:14:55.558Z,2.20
2023-03-13T13:17:31.445Z,1.90
2023-03-13T13:19:59.960Z,1.80
2023-03-13T13:22:48.220Z,1.80
2023-03-13T13:25:32.691Z,2.63
2023-03-13T13:28:23.896Z,2.15
2023-03-13T13:30:55.733Z,2.10
2023-03-13T13:33:41.797Z,1.80
2023-03-13T13:36:32.572Z,2.45
2023-03-13T13:39:00.719Z,2.45
2023-03-13T13:41:38.905Z,2.60
2023-03-13T13:44:23.786Z,2.40
2023-03-13T13:46:52.248Z,2.80
2023-03-13T13:49:22.529Z,2.60
2023-03-13T13:52:38.495Z,2.25
2023-03-13T13:55:41.860Z,2.20
2023-03-13T13:58:15.001Z,2.83
2023-03-13T14:00:46.508Z,2.75
2023-03-13T14:03:23.371Z,2.78
2023-03-13T14:05:55.609Z,2.75
2023-03-13T14:08:29.624Z,3.00
2023-03-13T14:11:08.340Z,3.17
2023-03-13T14:13:36.450Z,2.78
2023-03-13T14:16:24.621Z,2.70
2023-03-13T14:18:53.942Z,3.58
2023-03-13T14:21:25.128Z,2.92
2023-03-13T14:23:53.493Z,2.80
2023-03-13T14:26:24.059Z,2.78
2023-03-13T14:28:53.995Z,2.85
2023-03-13T14:31:27.479Z,3.00
2023-03-13T14:33:57.106Z,3.58
2023-03-13T14:36:26.936Z,2.92
2023-03-13T14:38:56.993Z,3.10
2023-03-13T14:41:38.509Z,2.60
2023-03-13T14:44:08.164Z,3.50
2023-03-13T14:46:38.208Z,2.72
2023-03-13T14:49:16.829Z,3.97
2023-03-13T14:51:54.421Z,2.90
2023-03-13T14:54:43.127Z,3.22
2023-03-13T14:57:17.238Z,2.95
2023-03-13T14:59:49.969Z,2.95
2023-03-13T15:02:28.589Z,3.17
2023-03-13T15:05:01.403Z,3.45
2023-03-13T15:07:43.701Z,3.90
2023-03-13T15:10:22.202Z,3.40
2023-03-13T15:12:58.908Z,4.03
2023-03-13T15:15:33.607Z,3.13
2023-03-13T15:18:28.814Z,4.03
2023-03-13T15:21:22.714Z,3.95
2023-03-13T15:23:55.870Z,3.42
2023-03-13T15:26:25.701Z,3.75
2023-03-13T15:28:54.892Z,3.22
2023-03-13T15:31:28.182Z,4.07
2023-03-13T15:34:16.634Z,3.72
2023-03-13T15:36:45.523Z,3.78
2023-03-13T15:39:32.548Z,3.13
2023-03-13T15:42:01.887Z,3.83
2023-03-13T15:44:34.724Z,3.60
2023-03-13T15:47:05.155Z,3.92
2023-03-13T15:49:41.950Z,3.90
2023-03-13T15:52:22.886Z,3.75
2023-03-13T15:54:56.625Z,4.20
2023-03-13T15:57:27.907Z,3.78
2023-03-13T16:00:02.114Z,3.03
2023-03-13T16:02:34.868Z,3.90
2023-03-13T16:05:04.884Z,3.35
2023-03-13T16:07:35.899Z,3.17
2023-03-13T16:10:25.602Z,4.03
2023-03-13T16:12:58.017Z,4.10
2023-03-13T16:15:27.069Z,3.50
2023-03-13T16:18:04.536Z,3.30
2023-03-13T16:20:34.346Z,3.40
2023-03-13T16:23:04.598Z,3.42
2023-03-13T16:25:37.655Z,3.50
2023-03-13T16:28:18.253Z,4.20
2023-03-13T16:30:52.668Z,3.63
2023-03-13T16:33:26.449Z,3.30
2023-03-13T16:36:02.417Z,3.67
2023-03-13T16:38:31.391Z,3.70
2023-03-13T16:41:02.476Z,3.50
2023-03-13T16:43:31.424Z,3.40
2023-03-13T16:46:00.721Z,3.80
2023-03-13T16:48:33.640Z,4.38
2023-03-13T16:51:07.445Z,3.95
2023-03-13T16:53:37.660Z,4.55
2023-03-13T16:56:16.058Z,3.97
2023-03-13T16:58:53.610Z,4.32
2023-03-13T17:01:25.194Z,3.78
2023-03-13T17:03:55.265Z,3.72
2023-03-13T17:06:26.937Z,4.57
2023-03-13T17:09:08.662Z,5.35
2023-03-13T17:11:40.298Z,4.20
2023-03-13T17:14:14.115Z,4.60
2023-03-13T17:16:44.978Z,5.22
2023-03-13T17:19:16.025Z,4.25
2023-03-13T17:21:48.349Z,4.57
2023-03-13T17:24:18.729Z,4.90
2023-03-13T17:26:50.227Z,5.00
2023-03-13T17:29:20.456Z,4.55
2023-03-13T17:31:50.113Z,4.85
2023-03-13T17:34:20.409Z,5.05
2023-03-13T17:36:50.360Z,4.20
2023-03-13T17:39:25.165Z,5.30
2023-03-13T17:42:00.738Z,5.22
2023-03-13T17:44:35.732Z,4.65
2023-03-13T17:47:06.815Z,4.95
2023-03-13T17:49:39.119Z,5.03
2023-03-13T17:52:09.373Z,4.78
2023-03-13T17:54:39.156Z,4.60
2023-03-13T17:57:18.834Z,5.13
2023-03-13T17:59:53.715Z,5.55
2023-03-13T18:02:23.539Z,5.22
2023-03-13T18:04:53.954Z,5.65
2023-03-13T18:07:29.725Z,4.57
2023-03-13T18:09:59.268Z,4.25
2023-03-13T18:12:30.311Z,5.32
2023-03-13T18:15:00.234Z,5.13
2023-03-13T18:17:30.859Z,5.22
2023-03-13T18:20:20.597Z,4.57
2023-03-13T18:22:53.137Z,5.18
2023-03-13T18:25:22.235Z,4.35
2023-03-13T18:27:52.660Z,6.22
2023-03-13T18:30:25.148Z,13.98
2023-03-13T18:33:02.221Z,8.23
2023-03-13T18:35:34.094Z,4.45
2023-03-13T18:38:16.321Z,6.15
2023-03-13T18:40:52.494Z,4.97
2023-03-13T18:43:31.182Z,4.25
2023-03-13T18:46:06.087Z,3.85
2023-03-13T18:48:46.966Z,4.20
2023-03-13T18:51:19.889Z,4.15
2023-03-13T18:53:55.933Z,4.78
2023-03-13T18:56:32.871Z,4.15
2023-03-13T18:59:08.964Z,4.70
2023-03-13T19:01:40.241Z,5.07
2023-03-13T19:04:10.099Z,5.00
2023-03-13T19:06:39.610Z,5.00
2023-03-13T19:09:41.165Z,4.22
2023-03-13T19:12:08.386Z,4.50
2023-03-13T19:14:46.043Z,4.85
2023-03-13T19:17:32.551Z,4.88
2023-03-13T19:20:05.439Z,4.38
2023-03-13T19:22:36.740Z,4.45
2023-03-13T19:25:11.531Z,4.55
2023-03-13T19:27:42.972Z,4.78
2023-03-13T19:30:24.583Z,4.15
2023-03-13T19:32:58.590Z,4.25
2023-03-13T19:35:29.920Z,4.78
2023-03-13T19:37:59.224Z,4.13
2023-03-13T19:40:30.355Z,5.05
2023-03-13T19:42:59.732Z,5.57
2023-03-13T19:45:31.211Z,5.15
2023-03-13T19:48:02.136Z,6.00
2023-03-13T19:50:33.482Z,5.25
2023-03-13T19:53:03.029Z,4.28
2023-03-13T19:55:32.602Z,4.30
2023-03-13T19:58:02.618Z,4.82
2023-03-13T20:00:36.299Z,4.40
2023-03-13T20:03:06.184Z,4.13
2023-03-13T20:05:39.786Z,4.50
2023-03-13T20:08:11.677Z,5.43
2023-03-13T20:10:45.002Z,4.95
2023-03-13T20:13:15.567Z,4.43
2023-03-13T20:15:50.160Z,5.80
2023-03-13T20:18:22.265Z,5.00
2023-03-13T20:20:54.838Z,4.30
2023-03-13T20:23:40.383Z,4.88
2023-03-13T20:26:19.976Z,5.18
2023-03-13T20:28:54.341Z,4.35
2023-03-13T20:31:31.253Z,5.45
2023-03-13T20:34:09.738Z,5.90
2023-03-13T20:36:41.086Z,4.78
2023-03-13T20:39:17.555Z,6.35
2023-03-13T20:41:51.694Z,5.80
2023-03-13T20:44:22.051Z,4.78
2023-03-13T20:46:58.495Z,5.28
2023-03-13T20:49:36.579Z,4.55
2023-03-13T20:52:12.662Z,5.65
2023-03-13T20:54:44.079Z,4.18
2023-03-13T20:57:14.763Z,4.43
2023-03-13T20:59:45.245Z,4.95
2023-03-13T21:02:26.829Z,5.07
2023-03-13T21:04:57.752Z,4.65
2023-03-13T21:07:32.040Z,5.80
2023-03-13T21:10:07.995Z,4.95
2023-03-13T21:12:42.322Z,5.00
2023-03-13T21:15:13.203Z,4.63
2023-03-13T21:17:46.988Z,4.82
2023-03-13T21:20:17.299Z,4.60
2023-03-13T21:22:47.926Z,5.28
2023-03-13T21:25:25.159Z,5.38
2023-03-13T21:27:55.898Z,4.55
2023-03-13T21:30:32.010Z,5.72
2023-03-13T21:33:06.894Z,4.75
2023-03-13T21:35:45.744Z,5.15
2023-03-13T21:38:18.649Z,4.90
2023-03-13T21:40:48.578Z,4.47
2023-03-13T21:43:18.383Z,4.80
2023-03-13T21:45:48.257Z,4.60
2023-03-13T21:48:20.571Z,4.95
2023-03-13T21:50:54.287Z,5.03
2023-03-13T21:53:27.073Z,4.60
2023-03-13T21:56:02.598Z,5.13
2023-03-13T21:58:32.110Z,4.28
2023-03-13T22:01:04.324Z,5.28
2023-03-13T22:03:36.444Z,4.22
2023-03-13T22:06:07.810Z,5.90
2023-03-13T22:08:37.551Z,5.53
2023-03-13T22:11:07.599Z,4.10
2023-03-13T22:13:42.604Z,4.82
2023-03-13T22:16:11.611Z,4.18
2023-03-13T22:18:42.439Z,4.60
2023-03-13T22:21:11.054Z,5.65
2023-03-13T22:23:39.527Z,5.47
2023-03-13T22:26:08.239Z,5.43
2023-03-13T22:28:36.819Z,4.85
2023-03-13T22:31:06.381Z,4.47
2023-03-13T22:33:35.577Z,4.43
2023-03-13T22:36:06.108Z,5.03
2023-03-13T22:38:38.860Z,5.13
2023-03-13T22:41:09.098Z,4.80
2023-03-13T22:43:37.408Z,5.18
2023-03-13T22:46:07.216Z,4.22
2023-03-13T22:48:35.504Z,4.93
2023-03-13T22:51:08.793Z,5.88
2023-03-13T22:53:39.284Z,4.45
2023-03-13T22:56:10.302Z,5.13
2023-03-13T22:58:39.100Z,4.68
2023-03-13T23:01:09.014Z,4.93
2023-03-13T23:03:37.520Z,5.00
2023-03-13T23:06:09.321Z,4.60
2023-03-13T23:08:37.844Z,5.10
2023-03-13T23:11:06.882Z,5.05
2023-03-13T23:13:35.477Z,5.20
2023-03-13T23:16:06.886Z,5.57
2023-03-13T23:18:35.603Z,5.43
2023-03-13T23:21:08.302Z,4.57
2023-03-13T23:23:36.748Z,4.57
2023-03-13T23:26:07.792Z,4.97
2023-03-13T23:28:36.671Z,5.20
2023-03-13T23:31:11.076Z,4.55
2023-03-13T23:33:39.517Z,5.07
2023-03-13T23:36:12.047Z,4.68
2023-03-13T23:38:40.508Z,4.57
2023-03-13T23:41:09.937Z,4.60
2023-03-13T23:43:38.546Z,4.90
2023-03-13T23:46:08.635Z,4.35
2023-03-13T23:48:36.885Z,4.50
2023-03-13T23:51:06.860Z,4.75
2023-03-13T23:53:38.497Z,4.95
2023-03-13T23:56:07.343Z,4.75
2023-03-13T23:58:35.883Z,4.30
